createdAt,value
2023-04-14T00:01:56.930Z,98.30
2023-04-14T00:04:24.223Z,98.80
2023-04-14T00:06:52.815Z,98.90
2023-04-14T00:09:19.821Z,98.80
2023-04-14T00:11:46.852Z,98.60
2023-04-14T00:14:13.777Z,98.30
2023-04-14T00:16:40.932Z,98.10
2023-04-14T00:19:07.935Z,97.60
2023-04-14T00:21:34.943Z,97.60
2023-04-14T00:24:01.882Z,97.90
2023-04-14T00:26:28.969Z,97.70
2023-04-14T00:28:55.971Z,97.80
2023-04-14T00:31:22.954Z,97.80
2023-04-14T00:33:49.968Z,97.50
2023-04-14T00:36:16.992Z,97.80
2023-04-14T00:38:43.971Z,98.30
2023-04-14T00:41:11.030Z,99.00
2023-04-14T00:43:38.054Z,99.50
2023-04-14T00:46:05.322Z,99.60
2023-04-14T00:48:32.464Z,100.00
2023-04-14T00:50:59.691Z,100.00
2023-04-14T00:53:27.491Z,100.00
2023-04-14T00:55:54.654Z,100.00
2023-04-14T00:58:21.684Z,100.00
2023-04-14T01:00:54.012Z,100.00
2023-04-14T01:03:21.743Z,100.00
2023-04-14T01:05:48.790Z,100.00
2023-04-14T01:08:16.381Z,100.00
2023-04-14T01:10:58.770Z,100.00
2023-04-14T01:13:41.332Z,100.00
2023-04-14T01:16:23.256Z,100.00
2023-04-14T01:19:10.558Z,100.00
2023-04-14T01:21:43.924Z,100.00
2023-04-14T01:24:29.301Z,100.00
2023-04-14T01:27:07.087Z,100.00
2023-04-14T01:30:09.888Z,100.00
2023-04-14T01:32:42.912Z,100.00
2023-04-14T01:35:17.588Z,100.00
2023-04-14T01:37:49.829Z,100.00
2023-04-14T01:40:19.680Z,100.00
2023-04-14T01:43:02.399Z,100.00
2023-04-14T01:45:36.865Z,100.00
2023-04-14T01:48:06.548Z,100.00
2023-04-14T01:50:36.050Z,100.00
2023-04-14T01:53:05.053Z,100.00
2023-04-14T01:55:36.326Z,100.00
2023-04-14T01:58:05.502Z,100.00
2023-04-14T02:00:36.051Z,100.00
2023-04-14T02:03:05.004Z,100.00
2023-04-14T02:05:35.634Z,99.90
2023-04-14T02:08:06.625Z,99.70
2023-04-14T02:10:35.743Z,99.60
2023-04-14T02:13:25.042Z,99.60
2023-04-14T02:15:53.466Z,99.80
2023-04-14T02:18:23.169Z,99.50
2023-04-14T02:20:52.764Z,99.30
2023-04-14T02:23:19.754Z,99.40
2023-04-14T02:25:55.518Z,99.40
2023-04-14T02:28:29.119Z,99.30
2023-04-14T02:30:59.023Z,99.30
2023-04-14T02:33:31.562Z,99.30
2023-04-14T02:36:04.572Z,99.30
2023-04-14T02:38:39.644Z,99.40
2023-04-14T02:41:15.467Z,99.60
2023-04-14T02:43:47.728Z,99.60
2023-04-14T02:46:18.037Z,100.00
2023-04-14T02:48:47.616Z,100.00
2023-04-14T02:51:16.763Z,100.00
2023-04-14T02:53:44.373Z,100.00
2023-04-14T02:56:19.461Z,100.00
2023-04-14T02:58:49.063Z,100.00
2023-04-14T03:01:18.848Z,100.00
2023-04-14T03:03:47.012Z,100.00
2023-04-14T03:06:15.931Z,100.00
2023-04-14T03:08:44.789Z,100.00
2023-04-14T03:11:14.506Z,100.00
2023-04-14T03:13:45.041Z,100.00
2023-04-14T03:16:13.438Z,100.00
2023-04-14T03:18:42.283Z,100.00
2023-04-14T03:21:09.425Z,100.00
2023-04-14T03:23:38.135Z,100.00
2023-04-14T03:26:08.934Z,100.00
2023-04-14T03:28:39.368Z,100.00
2023-04-14T03:31:11.182Z,100.00
2023-04-14T03:33:55.758Z,100.00
2023-04-14T03:36:26.269Z,100.00
2023-04-14T03:38:59.905Z,100.00
2023-04-14T03:41:31.328Z,100.00
2023-04-14T03:43:58.992Z,99.90
2023-04-14T03:46:28.543Z,99.90
2023-04-14T03:48:58.507Z,99.50
2023-04-14T03:51:29.439Z,99.40
2023-04-14T03:53:58.293Z,99.10
2023-04-14T03:56:26.276Z,99.10
2023-04-14T03:58:55.894Z,99.10
2023-04-14T04:01:26.023Z,99.10
2023-04-14T04:04:20.712Z,99.20
2023-04-14T04:06:50.127Z,98.90
2023-04-14T04:09:19.733Z,99.30
2023-04-14T04:11:47.779Z,99.40
2023-04-14T04:14:17.796Z,99.20
2023-04-14T04:16:49.948Z,99.30
2023-04-14T04:19:23.114Z,99.40
2023-04-14T04:21:53.288Z,99.50
2023-04-14T04:24:23.168Z,99.80
2023-04-14T04:26:51.643Z,100.00
2023-04-14T04:29:19.425Z,100.00
2023-04-14T04:31:47.448Z,100.00
2023-04-14T04:34:17.013Z,100.00
2023-04-14T04:36:45.201Z,100.00
2023-04-14T04:39:12.342Z,100.00
2023-04-14T04:41:41.893Z,99.90
2023-04-14T04:44:09.781Z,100.00
2023-04-14T04:46:48.138Z,100.00
2023-04-14T04:49:16.505Z,100.00
2023-04-14T04:51:44.504Z,100.00
2023-04-14T04:54:11.699Z,100.00
2023-04-14T04:56:38.710Z,100.00
2023-04-14T04:59:06.006Z,100.00
2023-04-14T05:01:33.157Z,100.00
2023-04-14T05:04:00.235Z,100.00
2023-04-14T05:06:28.287Z,100.00
2023-04-14T05:08:55.895Z,100.00
2023-04-14T05:11:23.572Z,100.00
2023-04-14T05:13:50.636Z,100.00
2023-04-14T05:16:18.636Z,100.00
2023-04-14T05:18:47.835Z,100.00
2023-04-14T05:21:15.632Z,100.00
2023-04-14T05:23:43.888Z,100.00
2023-04-14T05:28:43.439Z,100.00
2023-04-14T05:31:11.749Z,100.00
2023-04-14T05:33:40.134Z,100.00
2023-04-14T05:36:07.558Z,100.00
2023-04-14T05:38:40.120Z,100.00
2023-04-14T05:41:07.851Z,100.00
2023-04-14T05:43:35.246Z,100.00
2023-04-14T05:46:02.496Z,100.00
2023-04-14T05:48:31.057Z,100.00
2023-04-14T05:50:58.380Z,100.00
2023-04-14T05:53:25.418Z,100.00
2023-04-14T05:55:52.852Z,100.00
2023-04-14T05:58:20.174Z,100.00
2023-04-14T06:00:47.227Z,100.00
2023-04-14T06:03:16.465Z,100.00
2023-04-14T06:05:43.873Z,100.00
2023-04-14T06:08:10.977Z,100.00
2023-04-14T06:10:38.009Z,100.00
2023-04-14T06:13:05.047Z,100.00
2023-04-14T06:15:32.015Z,100.00
2023-04-14T06:17:59.088Z,100.00
2023-04-14T06:20:26.300Z,100.00
2023-04-14T06:22:53.342Z,100.00
2023-04-14T06:25:20.443Z,100.00
2023-04-14T06:27:47.526Z,100.00
2023-04-14T06:30:17.032Z,100.00
2023-04-14T06:32:44.217Z,100.00
2023-04-14T06:35:19.108Z,100.00
2023-04-14T06:37:50.581Z,100.00
2023-04-14T06:40:18.288Z,100.00
2023-04-14T06:42:45.627Z,100.00
2023-04-14T06:45:13.119Z,100.00
2023-04-14T06:47:40.373Z,100.00
2023-04-14T06:50:07.751Z,100.00
2023-04-14T06:52:35.730Z,100.00
2023-04-14T06:55:03.516Z,100.00
2023-04-14T06:57:30.590Z,100.00
2023-04-14T06:59:57.681Z,100.00
2023-04-14T07:02:24.740Z,100.00
2023-04-14T07:04:52.336Z,100.00
2023-04-14T07:07:19.421Z,100.00
2023-04-14T07:09:46.462Z,100.00
2023-04-14T07:12:16.695Z,100.00
2023-04-14T07:14:51.249Z,100.00
2023-04-14T07:17:19.405Z,100.00
2023-04-14T07:19:46.788Z,100.00
2023-04-14T07:22:15.159Z,100.00
2023-04-14T07:24:42.526Z,100.00
2023-04-14T07:27:15.632Z,99.70
2023-04-14T07:29:43.207Z,99.80
2023-04-14T07:32:12.145Z,100.00
2023-04-14T07:34:44.051Z,99.60
2023-04-14T07:37:11.474Z,99.60
2023-04-14T07:39:38.904Z,99.90
2023-04-14T07:42:06.911Z,99.90
2023-04-14T07:44:34.084Z,98.80
2023-04-14T07:47:01.112Z,98.80
2023-04-14T07:49:28.086Z,99.40
2023-04-14T07:51:55.117Z,97.20
2023-04-14T07:54:23.142Z,97.20
2023-04-14T07:56:50.211Z,97.50
2023-04-14T07:59:17.267Z,98.00
2023-04-14T08:01:44.489Z,95.90
2023-04-14T08:04:11.793Z,96.90
2023-04-14T08:06:39.132Z,97.30
2023-04-14T08:09:06.254Z,96.30
2023-04-14T08:11:33.424Z,95.30
2023-04-14T08:14:00.569Z,95.30
2023-04-14T08:16:27.978Z,95.10
2023-04-14T08:18:57.733Z,94.70
2023-04-14T08:21:45.562Z,95.00
2023-04-14T08:24:12.616Z,95.20
2023-04-14T08:26:40.457Z,93.30
2023-04-14T08:29:07.550Z,93.40
2023-04-14T08:31:34.785Z,92.50
2023-04-14T08:34:01.885Z,91.90
2023-04-14T08:36:29.040Z,91.40
2023-04-14T08:38:56.227Z,90.50
2023-04-14T08:41:23.690Z,89.30
2023-04-14T08:43:50.777Z,88.20
2023-04-14T08:46:20.218Z,87.60
2023-04-14T08:48:48.506Z,86.30
2023-04-14T08:51:35.075Z,86.60
2023-04-14T08:54:08.055Z,86.00
2023-04-14T08:56:38.578Z,85.30
2023-04-14T08:59:10.757Z,85.80
2023-04-14T09:01:38.855Z,85.90
2023-04-14T09:04:07.531Z,83.20
2023-04-14T09:06:35.494Z,82.60
2023-04-14T09:09:04.273Z,84.30
2023-04-14T09:11:31.597Z,85.10
2023-04-14T09:14:00.109Z,83.90
2023-04-14T09:16:28.436Z,83.90
2023-04-14T09:18:56.677Z,84.10
2023-04-14T09:21:51.720Z,83.40
2023-04-14T09:24:23.706Z,80.80
2023-04-14T09:26:54.797Z,80.60
2023-04-14T09:29:22.207Z,81.00
2023-04-14T09:31:49.516Z,81.10
2023-04-14T09:34:21.051Z,81.70
2023-04-14T09:37:08.095Z,80.20
2023-04-14T09:39:36.777Z,79.30
2023-04-14T09:42:04.848Z,79.60
2023-04-14T09:44:32.167Z,77.30
2023-04-14T09:47:07.595Z,76.20
2023-04-14T09:49:34.829Z,76.50
2023-04-14T09:52:08.548Z,72.70
2023-04-14T09:54:36.156Z,74.90
2023-04-14T09:57:04.198Z,73.70
2023-04-14T09:59:38.807Z,74.60
2023-04-14T10:02:07.990Z,73.20
2023-04-14T10:04:36.816Z,75.70
2023-04-14T10:07:08.078Z,76.30
2023-04-14T10:09:37.961Z,76.90
2023-04-14T10:12:15.684Z,72.80
2023-04-14T10:14:43.812Z,73.40
2023-04-14T10:17:11.442Z,72.70
2023-04-14T10:19:38.940Z,74.20
2023-04-14T10:22:06.559Z,75.00
2023-04-14T10:24:33.903Z,73.50
2023-04-14T10:27:03.121Z,75.20
2023-04-14T10:29:31.072Z,75.00
2023-04-14T10:32:08.193Z,72.50
2023-04-14T10:34:37.566Z,73.70
2023-04-14T10:37:15.176Z,74.10
2023-04-14T10:39:45.447Z,73.60
2023-04-14T10:42:12.597Z,72.10
2023-04-14T10:44:40.285Z,70.30
2023-04-14T10:47:08.574Z,68.70
2023-04-14T10:49:37.801Z,69.80
2023-04-14T10:52:06.490Z,68.40
2023-04-14T10:54:55.990Z,67.60
2023-04-14T10:57:24.639Z,67.60
2023-04-14T10:59:57.300Z,68.10
2023-04-14T11:02:32.444Z,67.20
2023-04-14T11:05:05.811Z,65.40
2023-04-14T11:07:47.392Z,67.10
2023-04-14T11:10:17.627Z,66.60
2023-04-14T11:12:46.145Z,66.70
2023-04-14T11:15:13.758Z,68.20
2023-04-14T11:17:43.294Z,68.80
2023-04-14T11:20:18.516Z,67.90
2023-04-14T11:22:47.831Z,67.20
2023-04-14T11:25:16.892Z,68.20
2023-04-14T11:27:44.911Z,68.10
2023-04-14T11:30:20.082Z,68.90
2023-04-14T11:32:54.642Z,67.70
2023-04-14T11:35:24.163Z,67.80
2023-04-14T11:37:58.802Z,67.70
2023-04-14T11:40:27.525Z,67.40
2023-04-14T11:42:59.626Z,67.50
2023-04-14T11:45:30.491Z,65.00
2023-04-14T11:47:59.310Z,63.60
2023-04-14T11:50:27.599Z,62.50
2023-04-14T11:53:00.397Z,60.80
2023-04-14T11:55:28.662Z,60.30
2023-04-14T11:57:57.137Z,61.40
2023-04-14T12:00:24.921Z,61.40
2023-04-14T12:02:52.508Z,61.50
2023-04-14T12:05:32.477Z,62.00
2023-04-14T12:08:05.838Z,63.30
2023-04-14T12:10:33.625Z,62.20
2023-04-14T12:13:05.345Z,61.40
2023-04-14T12:15:34.747Z,61.10
2023-04-14T12:18:02.357Z,61.10
2023-04-14T12:20:40.300Z,62.20
2023-04-14T12:23:07.371Z,63.30
2023-04-14T12:25:34.877Z,62.20
2023-04-14T12:28:05.922Z,63.70
2023-04-14T12:30:34.039Z,65.10
2023-04-14T12:33:10.101Z,67.50
2023-04-14T12:35:39.099Z,71.20
2023-04-14T12:38:13.238Z,75.30
2023-04-14T12:40:46.239Z,80.50
2023-04-14T12:43:14.712Z,82.70
2023-04-14T12:45:49.617Z,81.80
2023-04-14T12:48:17.994Z,85.20
2023-04-14T12:50:45.235Z,86.90
2023-04-14T12:53:29.101Z,88.00
2023-04-14T12:56:07.819Z,89.50
2023-04-14T12:58:37.909Z,90.10
2023-04-14T13:01:09.080Z,90.10
2023-04-14T13:03:47.728Z,86.30
2023-04-14T13:06:16.623Z,83.50
2023-04-14T13:08:51.255Z,84.10
2023-04-14T13:11:19.677Z,78.80
2023-04-14T13:13:47.392Z,77.90
2023-04-14T13:16:18.565Z,81.50
2023-04-14T13:18:47.606Z,83.60
2023-04-14T13:21:14.799Z,83.00
2023-04-14T13:23:42.209Z,83.20
2023-04-14T13:26:09.732Z,83.00
2023-04-14T13:28:37.261Z,83.30
2023-04-14T13:31:05.591Z,81.30
2023-04-14T13:33:33.325Z,79.40
2023-04-14T13:36:05.262Z,74.50
2023-04-14T13:38:33.716Z,72.70
2023-04-14T13:41:01.329Z,70.20
2023-04-14T13:43:28.375Z,73.50
2023-04-14T13:45:58.718Z,73.70
2023-04-14T13:48:27.336Z,73.20
2023-04-14T13:50:54.547Z,72.70
2023-04-14T13:53:21.760Z,67.90
2023-04-14T13:55:48.818Z,67.60
2023-04-14T13:58:16.044Z,65.50
2023-04-14T14:00:43.476Z,64.00
2023-04-14T14:03:10.634Z,65.00
2023-04-14T14:05:38.248Z,65.20
2023-04-14T14:08:05.416Z,65.80
2023-04-14T14:10:32.599Z,67.30
2023-04-14T14:12:59.631Z,64.10
2023-04-14T14:15:27.307Z,61.40
2023-04-14T14:17:55.262Z,62.50
2023-04-14T14:20:22.421Z,65.60
2023-04-14T14:22:49.424Z,64.50
2023-04-14T14:25:21.018Z,64.20
2023-04-14T14:27:50.458Z,63.70
2023-04-14T14:31:24.269Z,62.70
2023-04-14T14:33:51.522Z,63.80
2023-04-14T14:36:18.538Z,64.70
2023-04-14T14:38:47.723Z,67.50
2023-04-14T14:41:14.685Z,71.20
2023-04-14T14:43:41.869Z,73.70
2023-04-14T14:46:09.179Z,76.30
2023-04-14T14:48:37.285Z,78.10
2023-04-14T14:51:06.313Z,80.80
2023-04-14T14:53:35.538Z,80.80
2023-04-14T14:56:02.790Z,81.60
2023-04-14T14:58:30.441Z,80.70
2023-04-14T15:00:57.738Z,81.70
2023-04-14T15:03:42.896Z,81.50
2023-04-14T15:07:16.399Z,82.20
2023-04-14T15:09:44.013Z,81.60
2023-04-14T15:12:11.631Z,81.20
2023-04-14T15:14:39.905Z,81.20
2023-04-14T15:17:07.296Z,81.00
2023-04-14T15:19:34.406Z,81.40
2023-04-14T15:22:02.047Z,81.00
2023-04-14T15:24:30.185Z,80.40
2023-04-14T15:26:57.917Z,79.80
2023-04-14T15:29:27.930Z,79.20
2023-04-14T15:31:54.974Z,78.20
2023-04-14T15:34:23.468Z,78.60
2023-04-14T15:36:50.431Z,77.80
2023-04-14T15:39:18.224Z,78.70
2023-04-14T15:41:47.664Z,78.30
2023-04-14T15:44:14.677Z,76.10
2023-04-14T15:46:41.804Z,76.80
2023-04-14T15:49:08.808Z,75.90
2023-04-14T15:51:35.953Z,75.00
2023-04-14T15:54:03.426Z,75.20
2023-04-14T15:56:30.842Z,73.80
2023-04-14T15:58:57.980Z,72.50
2023-04-14T16:01:30.472Z,72.30
2023-04-14T16:03:57.577Z,72.30
2023-04-14T16:06:24.621Z,72.00
2023-04-14T16:08:51.581Z,72.00
2023-04-14T16:11:19.325Z,72.10
2023-04-14T16:13:52.500Z,72.10
2023-04-14T16:16:19.597Z,72.00
2023-04-14T16:18:46.641Z,71.40
2023-04-14T16:21:14.832Z,70.40
2023-04-14T16:23:42.506Z,71.70
2023-04-14T16:26:09.486Z,71.20
2023-04-14T16:28:36.574Z,71.00
2023-04-14T16:31:03.774Z,71.10
2023-04-14T16:33:32.845Z,69.90
2023-04-14T16:36:04.096Z,69.60
2023-04-14T16:38:31.157Z,70.40
2023-04-14T16:40:59.315Z,70.50
2023-04-14T16:43:28.017Z,69.10
2023-04-14T16:46:03.060Z,69.20
2023-04-14T16:48:30.739Z,69.40
2023-04-14T16:50:58.107Z,69.90
2023-04-14T16:53:25.296Z,70.00
2023-04-14T16:55:52.288Z,68.90
2023-04-14T16:58:21.742Z,69.70
2023-04-14T17:00:48.695Z,69.90
2023-04-14T17:03:15.834Z,70.20
2023-04-14T17:05:43.073Z,70.20
2023-04-14T17:08:12.191Z,69.00
2023-04-14T17:10:41.951Z,69.30
2023-04-14T17:13:09.121Z,71.00
2023-04-14T17:15:36.138Z,71.60
2023-04-14T17:18:09.768Z,71.50
2023-04-14T17:20:38.733Z,71.30
2023-04-14T17:23:05.824Z,72.10
2023-04-14T17:25:35.592Z,72.90
2023-04-14T17:28:02.665Z,73.30
2023-04-14T17:30:30.104Z,73.40
2023-04-14T17:32:57.164Z,73.90
2023-04-14T17:35:24.476Z,75.40
2023-04-14T17:37:51.579Z,75.80
2023-04-14T17:40:18.881Z,77.20
2023-04-14T17:42:45.941Z,76.00
2023-04-14T17:45:13.398Z,76.60
2023-04-14T17:47:40.460Z,75.90
2023-04-14T17:50:07.905Z,74.70
2023-04-14T17:52:35.997Z,73.60
2023-04-14T17:55:04.442Z,75.10
2023-04-14T17:57:31.483Z,74.30
2023-04-14T17:59:59.183Z,74.40
2023-04-14T18:02:52.344Z,74.30
2023-04-14T18:05:19.350Z,75.60
2023-04-14T18:07:46.983Z,76.10
2023-04-14T18:10:14.020Z,76.20
2023-04-14T18:12:41.074Z,76.60
2023-04-14T18:15:08.550Z,77.00
2023-04-14T18:17:36.582Z,77.40
2023-04-14T18:20:04.368Z,77.50
2023-04-14T18:22:31.670Z,78.00
2023-04-14T18:24:58.833Z,78.60
2023-04-14T18:29:55.750Z,78.80
2023-04-14T18:32:25.374Z,78.60
2023-04-14T18:34:52.771Z,78.70
2023-04-14T18:37:19.817Z,78.20
2023-04-14T18:39:46.962Z,77.90
2023-04-14T18:42:14.830Z,78.00
2023-04-14T18:44:42.160Z,78.60
2023-04-14T18:47:09.640Z,78.90
2023-04-14T18:49:54.137Z,79.10
2023-04-14T18:52:21.184Z,79.30
2023-04-14T18:54:48.752Z,79.50
2023-04-14T18:57:16.339Z,79.40
2023-04-14T18:59:43.451Z,80.90
2023-04-14T19:02:13.673Z,81.40
2023-04-14T19:04:41.108Z,81.90
2023-04-14T19:07:08.125Z,82.10
2023-04-14T19:09:36.262Z,82.10
2023-04-14T19:12:03.656Z,82.10
2023-04-14T19:14:30.729Z,81.70
2023-04-14T19:16:58.134Z,81.20
2023-04-14T19:19:25.240Z,80.80
2023-04-14T19:21:52.502Z,80.60
2023-04-14T19:24:20.107Z,80.30
2023-04-14T19:26:47.187Z,80.30
2023-04-14T19:29:14.454Z,80.10
2023-04-14T19:31:41.580Z,79.80
2023-04-14T19:34:09.042Z,79.50
2023-04-14T19:36:36.012Z,79.40
2023-04-14T19:39:04.133Z,79.30
2023-04-14T19:41:31.556Z,79.40
2023-04-14T19:43:58.649Z,79.40
2023-04-14T19:46:25.998Z,79.40
2023-04-14T19:48:54.609Z,79.70
2023-04-14T19:51:21.660Z,79.80
2023-04-14T19:53:49.293Z,79.90
2023-04-14T20:00:41.104Z,80.00
2023-04-14T20:03:08.219Z,80.20
2023-04-14T20:05:35.722Z,80.20
2023-04-14T20:08:03.598Z,80.30
2023-04-14T20:10:38.094Z,80.40
2023-04-14T20:13:05.175Z,80.40
2023-04-14T20:15:32.124Z,80.90
2023-04-14T20:17:59.140Z,81.30
2023-04-14T20:20:26.427Z,81.70
2023-04-14T20:22:55.616Z,82.20
2023-04-14T20:25:23.094Z,82.60
2023-04-14T20:27:50.151Z,82.80
2023-04-14T20:30:18.546Z,82.90
2023-04-14T20:32:46.493Z,83.10
2023-04-14T20:35:13.638Z,82.90
2023-04-14T20:37:46.655Z,83.00
2023-04-14T20:40:13.905Z,83.20
2023-04-14T20:42:41.005Z,83.20
2023-04-14T20:45:08.742Z,83.40
2023-04-14T20:47:36.482Z,83.40
2023-04-14T20:50:33.897Z,83.40
2023-04-14T20:53:00.886Z,83.80
2023-04-14T20:55:27.895Z,83.90
2023-04-14T20:57:54.900Z,83.90
2023-04-14T21:00:21.937Z,84.00
2023-04-14T21:02:51.849Z,85.10
2023-04-14T21:05:19.961Z,86.30
2023-04-14T21:07:47.737Z,87.30
2023-04-14T21:10:17.394Z,88.30
2023-04-14T21:15:27.123Z,89.20
2023-04-14T21:15:54.689Z,89.50
2023-04-14T21:18:22.542Z,89.60
2023-04-14T21:20:49.548Z,90.30
2023-04-14T21:23:16.920Z,90.40
2023-04-14T21:25:43.925Z,90.80
2023-04-14T21:28:11.300Z,91.60
2023-04-14T21:30:38.348Z,91.20
2023-04-14T21:33:08.764Z,91.10
2023-04-14T21:35:36.521Z,90.90
2023-04-14T21:39:07.575Z,90.50
2023-04-14T21:41:34.516Z,90.30
2023-04-14T21:44:01.954Z,90.20
2023-04-14T21:46:28.965Z,90.30
2023-04-14T21:48:56.561Z,90.70
2023-04-14T21:51:23.538Z,90.70
2023-04-14T21:53:50.507Z,90.40
2023-04-14T21:56:17.665Z,90.20
2023-04-14T21:58:46.000Z,89.90
2023-04-14T22:01:12.978Z,90.00
2023-04-14T22:03:41.292Z,90.30
2023-04-14T22:06:10.021Z,90.50
2023-04-14T22:08:40.647Z,90.40
2023-04-14T22:11:07.749Z,90.30
2023-04-14T22:13:34.834Z,90.10
2023-04-14T22:16:02.530Z,90.10
2023-04-14T22:18:30.962Z,89.90
2023-04-14T22:20:58.791Z,89.80
2023-04-14T22:23:26.250Z,90.20
2023-04-14T22:25:53.364Z,90.10
2023-04-14T22:28:20.437Z,90.40
2023-04-14T22:30:47.586Z,90.60
2023-04-14T22:33:14.592Z,90.60
2023-04-14T22:35:41.735Z,90.70
2023-04-14T22:38:08.795Z,90.80
2023-04-14T22:40:36.068Z,91.00
2023-04-14T22:43:08.745Z,91.40
2023-04-14T22:45:37.146Z,91.70
2023-04-14T22:48:05.595Z,91.70
2023-04-14T22:50:33.866Z,91.70
2023-04-14T22:53:01.980Z,91.80
2023-04-14T22:55:29.081Z,91.50
2023-04-14T22:57:56.612Z,91.40
2023-04-14T23:00:24.114Z,91.10
2023-04-14T23:02:52.523Z,91.10
2023-04-14T23:05:20.272Z,91.40
2023-04-14T23:07:49.032Z,91.60
2023-04-14T23:10:16.126Z,91.20
2023-04-14T23:12:43.118Z,91.10
2023-04-14T23:15:10.171Z,91.30
2023-04-14T23:17:37.550Z,91.60
2023-04-14T23:20:04.941Z,91.90
2023-04-14T23:22:32.912Z,91.90
2023-04-14T23:25:00.146Z,92.00
2023-04-14T23:27:28.929Z,92.20
2023-04-14T23:29:56.374Z,92.20
2023-04-14T23:32:23.428Z,91.90
2023-04-14T23:34:50.827Z,91.80
2023-04-14T23:37:18.482Z,91.40
2023-04-14T23:39:47.023Z,91.20
2023-04-14T23:42:14.315Z,91.40
2023-04-14T23:44:41.316Z,91.40
2023-04-14T23:47:08.563Z,91.10
2023-04-14T23:49:36.098Z,91.10
2023-04-14T23:52:04.633Z,91.10
2023-04-14T23:54:31.886Z,90.70
2023-04-14T23:56:58.936Z,90.60
2023-04-14T23:59:26.434Z,90.50
